sensor_id;sensor_type;location;lat;lon;timestamp;pressure;altitude;pressure_sealevel;temperature;humidity
68807;BME280;55800;54.272;18.558;2022-12-10T00:00:38;100391.72;;;-1.39;75.62
68807;BME280;55800;54.272;18.558;2022-12-10T00:03:17;100394.38;;;-1.38;75.11
68807;BME280;55800;54.272;18.558;2022-12-10T00:05:46;100386.50;;;-1.39;75.53
68807;BME280;55800;54.272;18.558;2022-12-10T00:08:17;100391.75;;;-1.41;75.42
68807;BME280;55800;54.272;18.558;2022-12-10T00:10:46;100384.75;;;-1.40;75.56
68807;BME280;55800;54.272;18.558;2022-12-10T00:13:15;100389.13;;;-1.39;75.65
68807;BME280;55800;54.272;18.558;2022-12-10T00:15:45;100384.75;;;-1.40;75.71
68807;BME280;55800;54.272;18.558;2022-12-10T00:18:14;100381.28;;;-1.38;75.41
68807;BME280;55800;54.272;18.558;2022-12-10T00:20:43;100386.50;;;-1.36;75.37
68807;BME280;55800;54.272;18.558;2022-12-10T00:23:12;100388.25;;;-1.35;75.26
68807;BME280;55800;54.272;18.558;2022-12-10T00:25:51;100390.88;;;-1.37;75.52
68807;BME280;55800;54.272;18.558;2022-12-10T00:28:20;100395.25;;;-1.34;75.27
68807;BME280;55800;54.272;18.558;2022-12-10T00:30:49;100386.50;;;-1.33;75.00
68807;BME280;55800;54.272;18.558;2022-12-10T00:33:18;100395.25;;;-1.34;75.03
68807;BME280;55800;54.272;18.558;2022-12-10T00:35:48;100394.38;;;-1.35;75.17
68807;BME280;55800;54.272;18.558;2022-12-10T00:38:17;100393.47;;;-1.41;75.27
68807;BME280;55800;54.272;18.558;2022-12-10T00:40:50;100392.63;;;-1.36;74.82
68807;BME280;55800;54.272;18.558;2022-12-10T00:43:19;100394.38;;;-1.36;74.86
68807;BME280;55800;54.272;18.558;2022-12-10T00:45:48;100394.38;;;-1.41;74.91
68807;BME280;55800;54.272;18.558;2022-12-10T00:48:18;100398.72;;;-1.43;74.96
68807;BME280;55800;54.272;18.558;2022-12-10T00:50:56;100397.00;;;-1.42;75.01
68807;BME280;55800;54.272;18.558;2022-12-10T00:53:26;100397.00;;;-1.42;74.98
68807;BME280;55800;54.272;18.558;2022-12-10T00:55:58;100407.50;;;-1.36;74.56
68807;BME280;55800;54.272;18.558;2022-12-10T00:58:28;100409.22;;;-1.37;74.65
68807;BME280;55800;54.272;18.558;2022-12-10T01:01:05;100403.97;;;-1.41;74.79
68807;BME280;55800;54.272;18.558;2022-12-10T01:03:35;100407.47;;;-1.48;75.09
68807;BME280;55800;54.272;18.558;2022-12-10T01:06:14;100403.09;;;-1.46;75.08
68807;BME280;55800;54.272;18.558;2022-12-10T01:08:44;100404.84;;;-1.45;75.19
68807;BME280;55800;54.272;18.558;2022-12-10T01:11:17;100405.72;;;-1.40;75.17
68807;BME280;55800;54.272;18.558;2022-12-10T01:13:47;100409.22;;;-1.38;75.06
68807;BME280;55800;54.272;18.558;2022-12-10T01:16:20;100402.22;;;-1.45;75.11
68807;BME280;55800;54.272;18.558;2022-12-10T01:18:53;100401.34;;;-1.49;75.30
68807;BME280;55800;54.272;18.558;2022-12-10T01:21:23;100403.97;;;-1.44;75.28
68807;BME280;55800;54.272;18.558;2022-12-10T01:23:54;100398.75;;;-1.38;74.94
68807;BME280;55800;54.272;18.558;2022-12-10T01:26:29;100397.84;;;-1.45;75.14
68807;BME280;55800;54.272;18.558;2022-12-10T01:28:59;100396.13;;;-1.44;75.29
68807;BME280;55800;54.272;18.558;2022-12-10T01:31:30;100396.97;;;-1.44;75.20
68807;BME280;55800;54.272;18.558;2022-12-10T01:33:59;100398.72;;;-1.41;75.24
68807;BME280;55800;54.272;18.558;2022-12-10T01:36:31;100392.59;;;-1.42;75.58
68807;BME280;55800;54.272;18.558;2022-12-10T01:39:01;100384.75;;;-1.40;75.59
68807;BME280;55800;54.272;18.558;2022-12-10T01:41:35;100395.22;;;-1.43;75.38
68807;BME280;55800;54.272;18.558;2022-12-10T01:47:13;100383.00;;;-1.41;75.39
68807;BME280;55800;54.272;18.558;2022-12-10T01:49:42;100384.72;;;-1.42;75.19
68807;BME280;55800;54.272;18.558;2022-12-10T01:52:13;100377.75;;;-1.41;75.63
68807;BME280;55800;54.272;18.558;2022-12-10T01:54:45;100380.38;;;-1.38;75.43
68807;BME280;55800;54.272;18.558;2022-12-10T01:57:20;100369.91;;;-1.34;74.83
68807;BME280;55800;54.272;18.558;2022-12-10T01:59:53;100375.16;;;-1.34;74.76
68807;BME280;55800;54.272;18.558;2022-12-10T02:02:30;100374.25;;;-1.43;75.06
68807;BME280;55800;54.272;18.558;2022-12-10T02:05:13;100381.22;;;-1.45;75.15
68807;BME280;55800;54.272;18.558;2022-12-10T02:07:59;100385.63;;;-1.44;75.17
68807;BME280;55800;54.272;18.558;2022-12-10T02:10:42;100375.13;;;-1.43;74.99
68807;BME280;55800;54.272;18.558;2022-12-10T02:13:19;100378.63;;;-1.41;75.13
68807;BME280;55800;54.272;18.558;2022-12-10T02:15:52;100382.13;;;-1.37;74.87
68807;BME280;55800;54.272;18.558;2022-12-10T02:18:28;100371.63;;;-1.45;75.10
68807;BME280;55800;54.272;18.558;2022-12-10T02:21:02;100376.88;;;-1.46;75.31
68807;BME280;55800;54.272;18.558;2022-12-10T02:23:37;100368.13;;;-1.47;75.31
68807;BME280;55800;54.272;18.558;2022-12-10T02:26:11;100371.63;;;-1.45;75.28
68807;BME280;55800;54.272;18.558;2022-12-10T02:28:50;100370.75;;;-1.44;75.24
68807;BME280;55800;54.272;18.558;2022-12-10T02:31:26;100378.59;;;-1.44;75.22
68807;BME280;55800;54.272;18.558;2022-12-10T02:34:00;100373.38;;;-1.45;75.20
68807;BME280;55800;54.272;18.558;2022-12-10T02:36:34;100375.13;;;-1.44;75.33
68807;BME280;55800;54.272;18.558;2022-12-10T02:39:09;100375.13;;;-1.46;75.18
68807;BME280;55800;54.272;18.558;2022-12-10T02:41:49;100372.50;;;-1.47;75.44
68807;BME280;55800;54.272;18.558;2022-12-10T02:44:21;100376.00;;;-1.48;75.63
68807;BME280;55800;54.272;18.558;2022-12-10T02:46:56;100382.13;;;-1.43;75.40
68807;BME280;55800;54.272;18.558;2022-12-10T02:49:33;100382.13;;;-1.43;75.42
68807;BME280;55800;54.272;18.558;2022-12-10T02:52:07;100374.25;;;-1.45;75.29
68807;BME280;55800;54.272;18.558;2022-12-10T02:54:42;100376.00;;;-1.44;75.53
68807;BME280;55800;54.272;18.558;2022-12-10T02:57:23;100383.00;;;-1.44;75.75
68807;BME280;55800;54.272;18.558;2022-12-10T03:00:05;100382.09;;;-1.42;75.59
68807;BME280;55800;54.272;18.558;2022-12-10T03:02:59;100388.22;;;-1.41;75.75
68807;BME280;55800;54.272;18.558;2022-12-10T03:05:39;100391.75;;;-1.42;75.88
68807;BME280;55800;54.272;18.558;2022-12-10T03:08:15;100390.88;;;-1.38;75.72
68807;BME280;55800;54.272;18.558;2022-12-10T03:10:54;100382.13;;;-1.37;75.54
68807;BME280;55800;54.272;18.558;2022-12-10T03:13:29;100392.63;;;-1.37;75.59
68807;BME280;55800;54.272;18.558;2022-12-10T03:16:03;100383.91;;;-1.38;75.71
68807;BME280;55800;54.272;18.558;2022-12-10T03:18:35;100385.63;;;-1.32;75.67
68807;BME280;55800;54.272;18.558;2022-12-10T03:21:06;100388.25;;;-1.32;75.63
68807;BME280;55800;54.272;18.558;2022-12-10T03:23:39;100387.38;;;-1.34;75.66
68807;BME280;55800;54.272;18.558;2022-12-10T03:26:10;100389.16;;;-1.32;75.75
68807;BME280;55800;54.272;18.558;2022-12-10T03:28:41;100390.03;;;-1.30;75.77
68807;BME280;55800;54.272;18.558;2022-12-10T03:31:20;100386.53;;;-1.30;75.72
68807;BME280;55800;54.272;18.558;2022-12-10T03:33:52;100390.00;;;-1.31;75.80
68807;BME280;55800;54.272;18.558;2022-12-10T03:36:22;100390.03;;;-1.30;75.67
68807;BME280;55800;54.272;18.558;2022-12-10T03:38:52;100385.63;;;-1.29;75.93
68807;BME280;55800;54.272;18.558;2022-12-10T03:41:22;100381.28;;;-1.32;75.89
68807;BME280;55800;54.272;18.558;2022-12-10T03:43:56;100382.13;;;-1.31;76.02
68807;BME280;55800;54.272;18.558;2022-12-10T03:46:29;100388.28;;;-1.26;75.96
68807;BME280;55800;54.272;18.558;2022-12-10T03:49:01;100385.63;;;-1.25;75.71
68807;BME280;55800;54.272;18.558;2022-12-10T03:51:31;100383.03;;;-1.23;75.56
68807;BME280;55800;54.272;18.558;2022-12-10T03:54:00;100385.66;;;-1.23;75.84
68807;BME280;55800;54.272;18.558;2022-12-10T03:56:29;100381.31;;;-1.21;75.78
68807;BME280;55800;54.272;18.558;2022-12-10T03:58:58;100381.28;;;-1.20;75.72
68807;BME280;55800;54.272;18.558;2022-12-10T04:01:27;100380.41;;;-1.16;75.60
68807;BME280;55800;54.272;18.558;2022-12-10T04:03:56;100375.16;;;-1.14;75.67
68807;BME280;55800;54.272;18.558;2022-12-10T04:06:27;100374.31;;;-1.13;75.69
68807;BME280;55800;54.272;18.558;2022-12-10T04:08:56;100374.28;;;-1.10;75.65
68807;BME280;55800;54.272;18.558;2022-12-10T04:11:26;100384.78;;;-1.10;75.35
68807;BME280;55800;54.272;18.558;2022-12-10T04:13:55;100383.91;;;-1.14;75.72
68807;BME280;55800;54.272;18.558;2022-12-10T04:16:42;100379.56;;;-1.15;75.69
68807;BME280;55800;54.272;18.558;2022-12-10T04:19:13;100371.69;;;-1.15;75.80
68807;BME280;55800;54.272;18.558;2022-12-10T04:21:45;100374.31;;;-1.07;75.70
68807;BME280;55800;54.272;18.558;2022-12-10T04:24:35;100376.06;;;-1.09;75.47
68807;BME280;55800;54.272;18.558;2022-12-10T04:27:22;100373.41;;;-1.12;75.50
68807;BME280;55800;54.272;18.558;2022-12-10T04:29:53;100364.69;;;-1.14;75.71
68807;BME280;55800;54.272;18.558;2022-12-10T04:32:24;100372.53;;;-1.14;75.70
68807;BME280;55800;54.272;18.558;2022-12-10T04:34:54;100374.31;;;-1.12;75.62
68807;BME280;55800;54.272;18.558;2022-12-10T04:37:26;100378.66;;;-1.18;75.62
68807;BME280;55800;54.272;18.558;2022-12-10T04:39:56;100369.94;;;-1.17;75.62
68807;BME280;55800;54.272;18.558;2022-12-10T04:42:25;100370.81;;;-1.15;75.72
68807;BME280;55800;54.272;18.558;2022-12-10T04:44:54;100367.31;;;-1.13;75.77
68807;BME280;55800;54.272;18.558;2022-12-10T04:47:24;100370.81;;;-1.11;75.66
68807;BME280;55800;54.272;18.558;2022-12-10T04:49:53;100367.31;;;-1.10;75.61
68807;BME280;55800;54.272;18.558;2022-12-10T04:52:22;100374.31;;;-1.12;75.58
68807;BME280;55800;54.272;18.558;2022-12-10T04:54:52;100373.44;;;-1.11;75.68
68807;BME280;55800;54.272;18.558;2022-12-10T04:57:22;100367.31;;;-1.10;75.73
68807;BME280;55800;54.272;18.558;2022-12-10T04:59:51;100365.56;;;-1.03;75.59
68807;BME280;55800;54.272;18.558;2022-12-10T05:02:20;100355.06;;;-1.03;75.63
68807;BME280;55800;54.272;18.558;2022-12-10T05:04:50;100356.84;;;-1.02;75.51
68807;BME280;55800;54.272;18.558;2022-12-10T05:07:19;100353.34;;;-1.04;75.47
68807;BME280;55800;54.272;18.558;2022-12-10T05:09:48;100364.69;;;-1.04;75.48
68807;BME280;55800;54.272;18.558;2022-12-10T05:12:19;100364.69;;;-1.07;75.52
68807;BME280;55800;54.272;18.558;2022-12-10T05:14:48;100361.19;;;-1.07;75.64
68807;BME280;55800;54.272;18.558;2022-12-10T05:17:17;100365.56;;;-1.03;75.49
68807;BME280;55800;54.272;18.558;2022-12-10T05:19:46;100359.47;;;-0.98;75.24
68807;BME280;55800;54.272;18.558;2022-12-10T05:22:15;100374.31;;;-0.98;75.37
68807;BME280;55800;54.272;18.558;2022-12-10T05:25:02;100376.06;;;-1.00;75.34
68807;BME280;55800;54.272;18.558;2022-12-10T05:27:33;100374.31;;;-1.01;75.60
68807;BME280;55800;54.272;18.558;2022-12-10T05:30:03;100380.44;;;-0.99;75.42
68807;BME280;55800;54.272;18.558;2022-12-10T05:32:34;100375.19;;;-1.01;75.56
68807;BME280;55800;54.272;18.558;2022-12-10T05:35:03;100376.94;;;-1.00;75.65
68807;BME280;55800;54.272;18.558;2022-12-10T05:37:33;100376.94;;;-0.97;75.71
68807;BME280;55800;54.272;18.558;2022-12-10T05:40:03;100376.94;;;-0.97;75.69
68807;BME280;55800;54.272;18.558;2022-12-10T05:42:35;100376.06;;;-0.94;75.65
68807;BME280;55800;54.272;18.558;2022-12-10T05:45:04;100377.81;;;-0.95;75.61
68807;BME280;55800;54.272;18.558;2022-12-10T05:47:34;100373.44;;;-0.94;75.75
68807;BME280;55800;54.272;18.558;2022-12-10T05:50:04;100380.44;;;-0.92;75.75
68807;BME280;55800;54.272;18.558;2022-12-10T05:52:34;100369.94;;;-0.89;75.52
68807;BME280;55800;54.272;18.558;2022-12-10T05:55:04;100371.69;;;-0.91;75.66
68807;BME280;55800;54.272;18.558;2022-12-10T05:57:36;100379.56;;;-0.86;75.59
68807;BME280;55800;54.272;18.558;2022-12-10T06:00:06;100381.31;;;-0.87;75.43
68807;BME280;55800;54.272;18.558;2022-12-10T06:02:39;100375.19;;;-0.89;75.43
68807;BME280;55800;54.272;18.558;2022-12-10T06:05:08;100377.81;;;-0.89;75.42
68807;BME280;55800;54.272;18.558;2022-12-10T06:07:39;100384.84;;;-0.89;75.38
68807;BME280;55800;54.272;18.558;2022-12-10T06:10:08;100383.09;;;-0.87;75.54
68807;BME280;55800;54.272;18.558;2022-12-10T06:12:39;100383.09;;;-0.87;75.45
68807;BME280;55800;54.272;18.558;2022-12-10T06:15:09;100391.81;;;-0.88;75.55
68807;BME280;55800;54.272;18.558;2022-12-10T06:17:39;100390.97;;;-0.87;75.46
68807;BME280;55800;54.272;18.558;2022-12-10T06:20:09;100402.31;;;-0.79;75.11
68807;BME280;55800;54.272;18.558;2022-12-10T06:22:39;100397.06;;;-0.84;75.22
68807;BME280;55800;54.272;18.558;2022-12-10T06:25:08;100401.44;;;-0.83;75.16
68807;BME280;55800;54.272;18.558;2022-12-10T06:27:39;100398.81;;;-0.84;75.28
68807;BME280;55800;54.272;18.558;2022-12-10T06:30:10;100402.31;;;-0.85;75.34
68807;BME280;55800;54.272;18.558;2022-12-10T06:32:39;100408.44;;;-0.85;75.51
68807;BME280;55800;54.272;18.558;2022-12-10T06:35:11;100411.06;;;-0.86;75.31
68807;BME280;55800;54.272;18.558;2022-12-10T06:37:40;100408.44;;;-0.86;75.39
68807;BME280;55800;54.272;18.558;2022-12-10T06:40:10;100405.81;;;-0.83;75.40
68807;BME280;55800;54.272;18.558;2022-12-10T06:42:40;100412.81;;;-0.82;75.26
68807;BME280;55800;54.272;18.558;2022-12-10T06:45:10;100418.94;;;-0.86;75.48
68807;BME280;55800;54.272;18.558;2022-12-10T06:47:39;100415.41;;;-0.91;75.59
68807;BME280;55800;54.272;18.558;2022-12-10T06:50:10;100418.03;;;-0.91;75.60
68807;BME280;55800;54.272;18.558;2022-12-10T06:52:39;100420.66;;;-0.93;75.66
68807;BME280;55800;54.272;18.558;2022-12-10T06:55:09;100423.31;;;-0.94;75.80
68807;BME280;55800;54.272;18.558;2022-12-10T06:57:38;100427.69;;;-0.92;75.82
68807;BME280;55800;54.272;18.558;2022-12-10T07:00:10;100418.03;;;-0.91;75.70
68807;BME280;55800;54.272;18.558;2022-12-10T07:02:39;100425.06;;;-0.90;75.71
68807;BME280;55800;54.272;18.558;2022-12-10T07:05:09;100426.81;;;-0.89;75.66
68807;BME280;55800;54.272;18.558;2022-12-10T07:07:38;100435.56;;;-0.84;75.45
68807;BME280;55800;54.272;18.558;2022-12-10T07:10:08;100422.44;;;-0.86;75.61
68807;BME280;55800;54.272;18.558;2022-12-10T07:12:38;100438.19;;;-0.87;75.61
68807;BME280;55800;54.272;18.558;2022-12-10T07:15:09;100427.69;;;-0.86;75.58
68807;BME280;55800;54.272;18.558;2022-12-10T07:17:39;100422.41;;;-0.83;75.34
68807;BME280;55800;54.272;18.558;2022-12-10T07:20:09;100432.91;;;-0.83;75.42
68807;BME280;55800;54.272;18.558;2022-12-10T07:22:40;100421.56;;;-0.86;75.54
68807;BME280;55800;54.272;18.558;2022-12-10T07:25:09;100435.53;;;-0.83;75.25
68807;BME280;55800;54.272;18.558;2022-12-10T07:27:38;100432.03;;;-0.85;75.28
68807;BME280;55800;54.272;18.558;2022-12-10T07:30:10;100426.81;;;-0.80;75.25
68807;BME280;55800;54.272;18.558;2022-12-10T07:32:40;100431.16;;;-0.81;75.19
68807;BME280;55800;54.272;18.558;2022-12-10T07:35:09;100421.56;;;-0.78;75.25
68807;BME280;55800;54.272;18.558;2022-12-10T07:37:38;100426.81;;;-0.80;75.20
68807;BME280;55800;54.272;18.558;2022-12-10T07:40:08;100425.94;;;-0.77;75.19
68807;BME280;55800;54.272;18.558;2022-12-10T07:42:38;100425.06;;;-0.78;75.21
68807;BME280;55800;54.272;18.558;2022-12-10T07:45:09;100425.94;;;-0.79;75.11
68807;BME280;55800;54.272;18.558;2022-12-10T07:47:39;100419.81;;;-0.84;75.42
68807;BME280;55800;54.272;18.558;2022-12-10T07:50:08;100427.69;;;-0.78;75.35
68807;BME280;55800;54.272;18.558;2022-12-10T07:52:38;100425.94;;;-0.77;75.30
68807;BME280;55800;54.272;18.558;2022-12-10T07:55:08;100427.69;;;-0.75;75.08
68807;BME280;55800;54.272;18.558;2022-12-10T07:57:37;100440.81;;;-0.78;75.59
68807;BME280;55800;54.272;18.558;2022-12-10T08:00:09;100446.06;;;-0.75;75.48
68807;BME280;55800;54.272;18.558;2022-12-10T08:02:40;100442.56;;;-0.74;75.40
68807;BME280;55800;54.272;18.558;2022-12-10T08:05:10;100437.31;;;-0.74;75.13
68807;BME280;55800;54.272;18.558;2022-12-10T08:07:39;100446.94;;;-0.71;75.37
68807;BME280;55800;54.272;18.558;2022-12-10T08:10:08;100455.69;;;-0.69;75.46
68807;BME280;55800;54.272;18.558;2022-12-10T08:12:38;100444.31;;;-0.68;75.34
68807;BME280;55800;54.272;18.558;2022-12-10T08:15:11;100457.44;;;-0.68;75.37
68807;BME280;55800;54.272;18.558;2022-12-10T08:17:40;100452.19;;;-0.67;75.32
68807;BME280;55800;54.272;18.558;2022-12-10T08:20:09;100463.56;;;-0.66;75.45
68807;BME280;55800;54.272;18.558;2022-12-10T08:22:39;100450.44;;;-0.66;75.31
68807;BME280;55800;54.272;18.558;2022-12-10T08:25:08;100448.72;;;-0.66;75.37
68807;BME280;55800;54.272;18.558;2022-12-10T08:27:38;100453.06;;;-0.65;75.46
68807;BME280;55800;54.272;18.558;2022-12-10T08:30:09;100453.06;;;-0.65;75.87
68807;BME280;55800;54.272;18.558;2022-12-10T08:32:39;100464.44;;;-0.61;75.72
68807;BME280;55800;54.272;18.558;2022-12-10T08:35:08;100460.97;;;-0.57;75.71
68807;BME280;55800;54.272;18.558;2022-12-10T08:37:41;100460.94;;;-0.54;75.53
68807;BME280;55800;54.272;18.558;2022-12-10T08:40:11;100460.09;;;-0.53;75.58
68807;BME280;55800;54.272;18.558;2022-12-10T08:42:43;100467.06;;;-0.51;75.43
68807;BME280;55800;54.272;18.558;2022-12-10T08:45:13;100465.34;;;-0.49;75.44
68807;BME280;55800;54.272;18.558;2022-12-10T08:47:44;100462.72;;;-0.47;75.36
68807;BME280;55800;54.272;18.558;2022-12-10T08:50:13;100465.31;;;-0.44;75.24
68807;BME280;55800;54.272;18.558;2022-12-10T08:52:44;100468.84;;;-0.41;75.44
68807;BME280;55800;54.272;18.558;2022-12-10T08:55:15;100466.19;;;-0.39;75.40
68807;BME280;55800;54.272;18.558;2022-12-10T08:57:44;100467.97;;;-0.38;75.52
68807;BME280;55800;54.272;18.558;2022-12-10T09:00:15;100471.47;;;-0.36;75.58
68807;BME280;55800;54.272;18.558;2022-12-10T09:02:48;100473.19;;;-0.34;75.58
68807;BME280;55800;54.272;18.558;2022-12-10T09:05:17;100474.94;;;-0.31;75.39
68807;BME280;55800;54.272;18.558;2022-12-10T09:07:47;100482.81;;;-0.27;75.41
68807;BME280;55800;54.272;18.558;2022-12-10T09:10:17;100473.22;;;-0.28;75.53
68807;BME280;55800;54.272;18.558;2022-12-10T09:12:46;100468.81;;;-0.24;75.25
68807;BME280;55800;54.272;18.558;2022-12-10T09:15:17;100463.56;;;-0.32;75.40
68807;BME280;55800;54.272;18.558;2022-12-10T09:17:46;100466.19;;;-0.35;75.37
68807;BME280;55800;54.272;18.558;2022-12-10T09:20:15;100461.84;;;-0.30;75.34
68807;BME280;55800;54.272;18.558;2022-12-10T09:22:45;100462.69;;;-0.25;75.28
68807;BME280;55800;54.272;18.558;2022-12-10T09:25:14;100465.31;;;-0.22;75.29
68807;BME280;55800;54.272;18.558;2022-12-10T09:27:44;100460.94;;;-0.18;75.41
68807;BME280;55800;54.272;18.558;2022-12-10T09:30:15;100461.81;;;-0.19;75.25
68807;BME280;55800;54.272;18.558;2022-12-10T09:32:46;100457.44;;;-0.17;75.46
68807;BME280;55800;54.272;18.558;2022-12-10T09:35:15;100450.44;;;-0.15;75.58
68807;BME280;55800;54.272;18.558;2022-12-10T09:37:44;100449.53;;;-0.11;75.63
68807;BME280;55800;54.272;18.558;2022-12-10T09:40:16;100449.53;;;-0.13;75.09
68807;BME280;55800;54.272;18.558;2022-12-10T09:42:51;100450.41;;;-0.12;74.96
68807;BME280;55800;54.272;18.558;2022-12-10T09:45:32;100444.28;;;-0.10;75.23
68807;BME280;55800;54.272;18.558;2022-12-10T09:48:15;100442.53;;;-0.05;75.46
68807;BME280;55800;54.272;18.558;2022-12-10T09:50:51;100446.00;;;-0.06;75.46
68807;BME280;55800;54.272;18.558;2022-12-10T09:53:23;100438.97;;;0.03;75.21
68807;BME280;55800;54.272;18.558;2022-12-10T09:55:53;100442.50;;;0.08;75.35
68807;BME280;55800;54.272;18.558;2022-12-10T09:58:24;100445.97;;;0.16;74.91
68807;BME280;55800;54.272;18.558;2022-12-10T10:01:00;100441.59;;;0.12;74.84
68807;BME280;55800;54.272;18.558;2022-12-10T10:03:33;100445.09;;;0.12;74.89
68807;BME280;55800;54.272;18.558;2022-12-10T10:06:04;100444.22;;;0.18;74.64
68807;BME280;55800;54.272;18.558;2022-12-10T10:08:42;100446.88;;;0.15;74.40
68807;BME280;55800;54.272;18.558;2022-12-10T10:11:16;100442.47;;;0.12;74.34
68807;BME280;55800;54.272;18.558;2022-12-10T10:13:51;100437.22;;;0.12;74.21
68807;BME280;55800;54.272;18.558;2022-12-10T10:16:25;100442.47;;;0.18;74.57
68807;BME280;55800;54.272;18.558;2022-12-10T10:18:59;100437.19;;;0.20;74.25
68807;BME280;55800;54.272;18.558;2022-12-10T10:21:34;100431.94;;;0.23;74.33
68807;BME280;55800;54.272;18.558;2022-12-10T10:24:05;100433.66;;;0.24;74.39
68807;BME280;55800;54.272;18.558;2022-12-10T10:26:39;100437.16;;;0.29;73.96
68807;BME280;55800;54.272;18.558;2022-12-10T10:29:11;100435.44;;;0.25;73.83
68807;BME280;55800;54.272;18.558;2022-12-10T10:31:43;100438.94;;;0.27;74.01
68807;BME280;55800;54.272;18.558;2022-12-10T10:34:16;100445.06;;;0.27;73.80
68807;BME280;55800;54.272;18.558;2022-12-10T10:36:47;100454.69;;;0.27;74.17
68807;BME280;55800;54.272;18.558;2022-12-10T10:39:27;100447.66;;;0.30;74.08
68807;BME280;55800;54.272;18.558;2022-12-10T10:41:58;100454.69;;;0.27;74.34
68807;BME280;55800;54.272;18.558;2022-12-10T10:44:34;100451.19;;;0.26;74.23
68807;BME280;55800;54.272;18.558;2022-12-10T10:47:26;100445.91;;;0.32;73.65
68807;BME280;55800;54.272;18.558;2022-12-10T10:50:02;100435.41;;;0.26;74.05
68807;BME280;55800;54.272;18.558;2022-12-10T10:52:38;100438.03;;;0.35;73.79
68807;BME280;55800;54.272;18.558;2022-12-10T10:55:31;100431.00;;;0.33;74.15
68807;BME280;55800;54.272;18.558;2022-12-10T10:58:02;100429.28;;;0.33;73.83
68807;BME280;55800;54.272;18.558;2022-12-10T11:00:32;100426.63;;;0.30;74.08
68807;BME280;55800;54.272;18.558;2022-12-10T11:03:06;100433.63;;;0.30;74.20
68807;BME280;55800;54.272;18.558;2022-12-10T11:05:36;100427.50;;;0.32;74.60
68807;BME280;55800;54.272;18.558;2022-12-10T11:08:12;100434.53;;;0.33;74.69
68807;BME280;55800;54.272;18.558;2022-12-10T11:10:48;100427.53;;;0.34;74.71
68807;BME280;55800;54.272;18.558;2022-12-10T11:13:24;100426.59;;;0.39;74.70
68807;BME280;55800;54.272;18.558;2022-12-10T11:15:58;100425.72;;;0.46;74.36
68807;BME280;55800;54.272;18.558;2022-12-10T11:18:33;100431.00;;;0.42;74.23
68807;BME280;55800;54.272;18.558;2022-12-10T11:21:05;100432.66;;;0.53;74.19
68807;BME280;55800;54.272;18.558;2022-12-10T11:23:38;100434.44;;;0.53;74.29
68807;BME280;55800;54.272;18.558;2022-12-10T11:29:23;100434.44;;;0.54;73.95
68807;BME280;55800;54.272;18.558;2022-12-10T11:32:09;100423.00;;;0.60;74.06
68807;BME280;55800;54.272;18.558;2022-12-10T11:34:53;100429.16;;;0.59;74.25
68807;BME280;55800;54.272;18.558;2022-12-10T11:37:32;100430.88;;;0.60;74.22
68807;BME280;55800;54.272;18.558;2022-12-10T11:40:14;100430.88;;;0.63;74.28
68807;BME280;55800;54.272;18.558;2022-12-10T11:42:59;100423.84;;;0.66;74.18
68807;BME280;55800;54.272;18.558;2022-12-10T11:45:35;100403.72;;;0.61;74.00
68807;BME280;55800;54.272;18.558;2022-12-10T11:48:21;100421.19;;;0.75;74.41
68807;BME280;55800;54.272;18.558;2022-12-10T11:51:02;100414.13;;;0.82;74.00
68807;BME280;55800;54.272;18.558;2022-12-10T11:53:56;100418.47;;;0.86;74.83
68807;BME280;55800;54.272;18.558;2022-12-10T11:56:33;100413.19;;;0.89;74.75
68807;BME280;55800;54.272;18.558;2022-12-10T11:59:10;100413.16;;;0.94;74.62
68807;BME280;55800;54.272;18.558;2022-12-10T12:02:03;100420.16;;;0.98;74.77
68807;BME280;55800;54.272;18.558;2022-12-10T12:04:49;100413.09;;;1.03;75.10
68807;BME280;55800;54.272;18.558;2022-12-10T12:07:36;100414.81;;;1.08;74.59
68807;BME280;55800;54.272;18.558;2022-12-10T12:10:34;100409.56;;;1.10;74.05
68807;BME280;55800;54.272;18.558;2022-12-10T12:13:24;100417.44;;;1.14;74.92
68807;BME280;55800;54.272;18.558;2022-12-10T12:15:57;100409.47;;;1.19;74.86
68807;BME280;55800;54.272;18.558;2022-12-10T12:18:35;100415.63;;;1.19;74.99
68807;BME280;55800;54.272;18.558;2022-12-10T12:21:09;100413.84;;;1.21;74.85
68807;BME280;55800;54.272;18.558;2022-12-10T12:23:46;100412.94;;;1.24;74.59
68807;BME280;55800;54.272;18.558;2022-12-10T12:26:23;100417.31;;;1.26;74.60
68807;BME280;55800;54.272;18.558;2022-12-10T12:29:01;100416.41;;;1.27;75.00
68807;BME280;55800;54.272;18.558;2022-12-10T12:31:37;100419.94;;;1.31;75.04
68807;BME280;55800;54.272;18.558;2022-12-10T12:34:17;100420.81;;;1.31;75.08
68807;BME280;55800;54.272;18.558;2022-12-10T12:36:48;100412.91;;;1.31;75.11
68807;BME280;55800;54.272;18.558;2022-12-10T12:39:30;100410.22;;;1.34;75.04
68807;BME280;55800;54.272;18.558;2022-12-10T12:42:06;100415.47;;;1.36;75.15
68807;BME280;55800;54.272;18.558;2022-12-10T12:44:48;100409.34;;;1.37;75.17
68807;BME280;55800;54.272;18.558;2022-12-10T12:47:34;100409.34;;;1.37;75.10
68807;BME280;55800;54.272;18.558;2022-12-10T12:50:11;100412.00;;;1.35;74.98
68807;BME280;55800;54.272;18.558;2022-12-10T12:52:52;100415.50;;;1.34;74.92
68807;BME280;55800;54.272;18.558;2022-12-10T12:55:29;100411.13;;;1.33;75.12
68807;BME280;55800;54.272;18.558;2022-12-10T12:58:13;100412.00;;;1.32;74.99
68807;BME280;55800;54.272;18.558;2022-12-10T13:00:48;100424.31;;;1.33;75.00
68807;BME280;55800;54.272;18.558;2022-12-10T13:03:29;100416.41;;;1.33;74.96
68807;BME280;55800;54.272;18.558;2022-12-10T13:06:13;100418.19;;;1.31;74.89
68807;BME280;55800;54.272;18.558;2022-12-10T13:08:49;100418.19;;;1.31;74.73
68807;BME280;55800;54.272;18.558;2022-12-10T13:11:29;100419.94;;;1.29;75.18
68807;BME280;55800;54.272;18.558;2022-12-10T13:17:28;100419.03;;;1.30;74.75
68807;BME280;55800;54.272;18.558;2022-12-10T13:20:33;100423.44;;;1.30;74.55
68807;BME280;55800;54.272;18.558;2022-12-10T13:23:05;100421.69;;;1.30;75.02